PWSweather.com
Personal Weather Stations
Station Observations
KCASARAT2
Saratoga, Saratoga, CA 95070

SaratogaSaratoga, CA 95070

Lat: 37.2625, Lon: -122.0033

Elevation: 370

Station Type: Davis Vantage Pro 2

Latest ConditionsUpdated 1:08:01 AM PDT Sunday, Jun 16, 2019
Currently Today's Max Today's Min Today's Average
Temperature 60.4°F15.8°C 61.2°F16.2°C 60.1°F15.6°C 60.6°F15.9°C
Dew Point 54.0°F12.2°C 54.5°F12.5°C 53.8°F12.1°C 54.1°F12.3°C
Winds Calm Calm 0.4 mph -0.6 kmh - - 0.1 mph 0.2 kmh
Wind Gusts -- 1.1 mph1.8 kmh - -
Humidity 79% 80% 78% 79%
Pressure 29.89 in1012.2 mb 29.91 in1012.9 mb 29.89 in1012.2 mb -
Hour Temp Dew Point Humidity Winds Wind Gusts Pressure Precip Precip Rate Daily Precip Total
01:08 AM 60.4°F15.8°C 54.0°F12.2°C 79% Calm Calm -- 29.89 in1012.2 mb 0.00 in0.0 mm 0.00 in0.0 mm 0.00 in0.0 mm
01:07 AM 60.4°F15.8°C 54.0°F12.2°C 79% Calm Calm -- 29.90 in1012.5 mb 0.00 in0.0 mm 0.00 in0.0 mm 0.00 in0.0 mm
01:06 AM 60.6°F15.9°C 54.1°F12.3°C 79% Calm Calm -- 29.90 in1012.5 mb 0.00 in0.0 mm 0.00 in0.0 mm 0.00 in0.0 mm
01:05 AM 60.6°F15.9°C 54.1°F12.3°C 79% Calm Calm -- 29.90 in1012.5 mb 0.00 in0.0 mm 0.00 in0.0 mm 0.00 in0.0 mm
01:04 AM 60.8°F16.0°C 54.3°F12.4°C 79% Calm Calm 1.1 mph1.8 kmh 29.89 in1012.2 mb 0.00 in0.0 mm 0.00 in0.0 mm 0.00 in0.0 mm
01:03 AM 60.6°F15.9°C 54.1°F12.3°C 79% Calm Calm -- 29.89 in1012.2 mb 0.00 in0.0 mm 0.00 in0.0 mm 0.00 in0.0 mm
01:02 AM 60.6°F15.9°C 54.1°F12.3°C 79% Calm Calm -- 29.90 in1012.5 mb 0.00 in0.0 mm 0.00 in0.0 mm 0.00 in0.0 mm
01:01 AM 60.6°F15.9°C 54.1°F12.3°C 79% Calm Calm -- 29.90 in1012.5 mb 0.00 in0.0 mm 0.00 in0.0 mm 0.00 in0.0 mm
01:00 AM 60.6°F15.9°C 54.1°F12.3°C 79% Calm Calm -- 29.90 in1012.5 mb 0.00 in0.0 mm 0.00 in0.0 mm 0.00 in0.0 mm
12:59 AM 60.6°F15.9°C 54.1°F12.3°C 79% Calm Calm -- 29.90 in1012.5 mb 0.00 in0.0 mm 0.00 in0.0 mm 0.00 in0.0 mm
12:58 AM 60.6°F15.9°C 53.8°F12.1°C 78% Calm Calm 1.1 mph1.8 kmh 29.90 in1012.5 mb 0.00 in0.0 mm 0.00 in0.0 mm 0.00 in0.0 mm
12:57 AM 60.8°F16.0°C 54.0°F12.2°C 78% Calm Calm 1.1 mph1.8 kmh 29.90 in1012.5 mb 0.00 in0.0 mm 0.00 in0.0 mm 0.00 in0.0 mm
12:56 AM 61.0°F16.1°C 54.5°F12.5°C 79% Calm Calm -- 29.89 in1012.2 mb 0.00 in0.0 mm 0.00 in0.0 mm 0.00 in0.0 mm
12:55 AM 60.8°F16.0°C 54.3°F12.4°C 79% Calm Calm -- 29.89 in1012.2 mb 0.00 in0.0 mm 0.00 in0.0 mm 0.00 in0.0 mm
12:54 AM 60.8°F16.0°C 54.3°F12.4°C 79% 0.2 mph NE0.3 kmh NE -- 29.90 in1012.5 mb 0.00 in0.0 mm 0.00 in0.0 mm 0.00 in0.0 mm
12:53 AM 60.8°F16.0°C 54.3°F12.4°C 79% 0.2 mph NE0.3 kmh NE 1.1 mph1.8 kmh 29.90 in1012.5 mb 0.00 in0.0 mm 0.00 in0.0 mm 0.00 in0.0 mm
12:52 AM 60.8°F16.0°C 54.3°F12.4°C 79% Calm Calm -- 29.90 in1012.5 mb 0.00 in0.0 mm 0.00 in0.0 mm 0.00 in0.0 mm
12:51 AM 60.8°F16.0°C 54.3°F12.4°C 79% Calm Calm -- 29.90 in1012.5 mb 0.00 in0.0 mm 0.00 in0.0 mm 0.00 in0.0 mm
12:50 AM 60.8°F16.0°C 54.3°F12.4°C 79% Calm Calm -- 29.90 in1012.5 mb 0.00 in0.0 mm 0.00 in0.0 mm 0.00 in0.0 mm
12:49 AM 60.6°F15.9°C 54.5°F12.5°C 80% Calm Calm -- 29.90 in1012.5 mb 0.00 in0.0 mm 0.00 in0.0 mm 0.00 in0.0 mm
12:48 AM 60.4°F15.8°C 54.0°F12.2°C 79% Calm Calm -- 29.90 in1012.5 mb 0.00 in0.0 mm 0.00 in0.0 mm 0.00 in0.0 mm
12:47 AM 60.4°F15.8°C 54.0°F12.2°C 79% Calm Calm -- 29.90 in1012.5 mb 0.00 in0.0 mm 0.00 in0.0 mm 0.00 in0.0 mm
12:46 AM 60.4°F15.8°C 54.3°F12.4°C 80% Calm Calm -- 29.90 in1012.5 mb 0.00 in0.0 mm 0.00 in0.0 mm 0.00 in0.0 mm
12:45 AM 60.4°F15.8°C 54.3°F12.4°C 80% 0.2 mph NE0.3 kmh NE 1.1 mph1.8 kmh 29.90 in1012.5 mb 0.00 in0.0 mm 0.00 in0.0 mm 0.00 in0.0 mm
12:44 AM 60.4°F15.8°C 54.3°F12.4°C 80% 0.4 mph NE0.6 kmh NE 1.1 mph1.8 kmh 29.90 in1012.5 mb 0.00 in0.0 mm 0.00 in0.0 mm 0.00 in0.0 mm
12:43 AM 60.4°F15.8°C 54.3°F12.4°C 80% 0.2 mph NE0.3 kmh NE 1.1 mph1.8 kmh 29.90 in1012.5 mb 0.00 in0.0 mm 0.00 in0.0 mm 0.00 in0.0 mm
12:42 AM 60.3°F15.7°C 54.1°F12.3°C 80% Calm Calm -- 29.90 in1012.5 mb 0.00 in0.0 mm 0.00 in0.0 mm 0.00 in0.0 mm
12:41 AM 60.3°F15.7°C 54.1°F12.3°C 80% Calm Calm 1.1 mph1.8 kmh 29.90 in1012.5 mb 0.00 in0.0 mm 0.00 in0.0 mm 0.00 in0.0 mm
12:40 AM 60.3°F15.7°C 54.1°F12.3°C 80% Calm Calm -- 29.90 in1012.5 mb 0.00 in0.0 mm 0.00 in0.0 mm 0.00 in0.0 mm
12:39 AM 60.3°F15.7°C 53.8°F12.1°C 79% 0.2 mph NE0.3 kmh NE -- 29.90 in1012.5 mb 0.00 in0.0 mm 0.00 in0.0 mm 0.00 in0.0 mm
12:38 AM 60.4°F15.8°C 54.0°F12.2°C 79% 0.2 mph NE0.3 kmh NE 1.1 mph1.8 kmh 29.90 in1012.5 mb 0.00 in0.0 mm 0.00 in0.0 mm 0.00 in0.0 mm
12:37 AM 60.4°F15.8°C 54.3°F12.4°C 80% 0.2 mph NE0.3 kmh NE 1.1 mph1.8 kmh 29.90 in1012.5 mb 0.00 in0.0 mm 0.00 in0.0 mm 0.00 in0.0 mm
12:36 AM 60.4°F15.8°C 54.3°F12.4°C 80% 0.2 mph NE0.3 kmh NE 1.1 mph1.8 kmh 29.90 in1012.5 mb 0.00 in0.0 mm 0.00 in0.0 mm 0.00 in0.0 mm
12:35 AM 60.3°F15.7°C 54.1°F12.3°C 80% Calm Calm 1.1 mph1.8 kmh 29.90 in1012.5 mb 0.00 in0.0 mm 0.00 in0.0 mm 0.00 in0.0 mm
12:34 AM 60.3°F15.7°C 54.1°F12.3°C 80% Calm Calm -- 29.90 in1012.5 mb 0.00 in0.0 mm 0.00 in0.0 mm 0.00 in0.0 mm
12:33 AM 60.3°F15.7°C 54.1°F12.3°C 80% Calm Calm -- 29.91 in1012.9 mb 0.00 in0.0 mm 0.00 in0.0 mm 0.00 in0.0 mm
12:32 AM 60.3°F15.7°C 54.1°F12.3°C 80% Calm Calm -- 29.90 in1012.5 mb 0.00 in0.0 mm 0.00 in0.0 mm 0.00 in0.0 mm
12:31 AM 60.3°F15.7°C 54.1°F12.3°C 80% Calm Calm -- 29.90 in1012.5 mb 0.00 in0.0 mm 0.00 in0.0 mm 0.00 in0.0 mm
12:30 AM 60.1°F15.6°C 54.0°F12.2°C 80% Calm Calm -- 29.90 in1012.5 mb 0.00 in0.0 mm 0.00 in0.0 mm 0.00 in0.0 mm
12:29 AM 60.1°F15.6°C 54.0°F12.2°C 80% 0.2 mph NE0.3 kmh NE 1.1 mph1.8 kmh 29.91 in1012.9 mb 0.00 in0.0 mm 0.00 in0.0 mm 0.00 in0.0 mm
12:28 AM 60.3°F15.7°C 54.1°F12.3°C 80% 0.4 mph NE0.6 kmh NE 1.1 mph1.8 kmh 29.90 in1012.5 mb 0.00 in0.0 mm 0.00 in0.0 mm 0.00 in0.0 mm
12:27 AM 60.3°F15.7°C 53.8°F12.1°C 79% 0.2 mph NE0.3 kmh NE 1.1 mph1.8 kmh 29.91 in1012.9 mb 0.00 in0.0 mm 0.00 in0.0 mm 0.00 in0.0 mm
12:26 AM 60.3°F15.7°C 54.1°F12.3°C 80% 0.2 mph NE0.3 kmh NE 1.1 mph1.8 kmh 29.91 in1012.9 mb 0.00 in0.0 mm 0.00 in0.0 mm 0.00 in0.0 mm
12:25 AM 60.3°F15.7°C 54.1°F12.3°C 80% Calm Calm 1.1 mph1.8 kmh 29.91 in1012.9 mb 0.00 in0.0 mm 0.00 in0.0 mm 0.00 in0.0 mm
12:24 AM 60.3°F15.7°C 54.1°F12.3°C 80% Calm Calm -- 29.91 in1012.9 mb 0.00 in0.0 mm 0.00 in0.0 mm 0.00 in0.0 mm
12:23 AM 60.3°F15.7°C 53.8°F12.1°C 79% 0.2 mph NE0.3 kmh NE 1.1 mph1.8 kmh 29.91 in1012.9 mb 0.00 in0.0 mm 0.00 in0.0 mm 0.00 in0.0 mm
12:22 AM 60.3°F15.7°C 53.8°F12.1°C 79% 0.4 mph NE0.6 kmh NE 1.1 mph1.8 kmh 29.91 in1012.9 mb 0.00 in0.0 mm 0.00 in0.0 mm 0.00 in0.0 mm
12:21 AM 60.4°F15.8°C 54.0°F12.2°C 79% 0.4 mph NE0.6 kmh NE 1.1 mph1.8 kmh 29.91 in1012.9 mb 0.00 in0.0 mm 0.00 in0.0 mm 0.00 in0.0 mm
12:20 AM 60.4°F15.8°C 54.0°F12.2°C 79% 0.4 mph NE0.6 kmh NE 1.1 mph1.8 kmh 29.91 in1012.9 mb 0.00 in0.0 mm 0.00 in0.0 mm 0.00 in0.0 mm
12:19 AM 60.6°F15.9°C 54.1°F12.3°C 79% 0.4 mph NE0.6 kmh NE 1.1 mph1.8 kmh 29.91 in1012.9 mb 0.00 in0.0 mm 0.00 in0.0 mm 0.00 in0.0 mm
12:18 AM 60.6°F15.9°C 53.8°F12.1°C 78% 0.2 mph NE0.3 kmh NE 1.1 mph1.8 kmh 29.91 in1012.9 mb 0.00 in0.0 mm 0.00 in0.0 mm 0.00 in0.0 mm
12:17 AM 60.6°F15.9°C 53.8°F12.1°C 78% Calm Calm -- 29.91 in1012.9 mb 0.00 in0.0 mm 0.00 in0.0 mm 0.00 in0.0 mm
12:16 AM 60.6°F15.9°C 53.8°F12.1°C 78% Calm Calm -- 29.91 in1012.9 mb 0.00 in0.0 mm 0.00 in0.0 mm 0.00 in0.0 mm
12:15 AM 60.8°F16.0°C 54.0°F12.2°C 78% 0.2 mph NE0.3 kmh NE 1.1 mph1.8 kmh 29.91 in1012.9 mb 0.00 in0.0 mm 0.00 in0.0 mm 0.00 in0.0 mm
12:14 AM 60.8°F16.0°C 54.3°F12.4°C 79% 0.2 mph NE0.3 kmh NE 1.1 mph1.8 kmh 29.91 in1012.9 mb 0.00 in0.0 mm 0.00 in0.0 mm 0.00 in0.0 mm
12:13 AM 60.8°F16.0°C 54.3°F12.4°C 79% Calm Calm 1.1 mph1.8 kmh 29.91 in1012.9 mb 0.00 in0.0 mm 0.00 in0.0 mm 0.00 in0.0 mm
12:12 AM 60.6°F15.9°C 54.1°F12.3°C 79% Calm Calm -- 29.91 in1012.9 mb 0.00 in0.0 mm 0.00 in0.0 mm 0.00 in0.0 mm
12:11 AM 60.6°F15.9°C 54.1°F12.3°C 79% Calm Calm -- 29.91 in1012.9 mb 0.00 in0.0 mm 0.00 in0.0 mm 0.00 in0.0 mm
12:10 AM 60.6°F15.9°C 54.1°F12.3°C 79% 0.2 mph NE0.3 kmh NE 1.1 mph1.8 kmh 29.91 in1012.9 mb 0.00 in0.0 mm 0.00 in0.0 mm 0.00 in0.0 mm
12:09 AM 60.6°F15.9°C 53.8°F12.1°C 78% 0.2 mph NE0.3 kmh NE 1.1 mph1.8 kmh 29.91 in1012.9 mb 0.00 in0.0 mm 0.00 in0.0 mm 0.00 in0.0 mm
12:08 AM 60.6°F15.9°C 53.8°F12.1°C 78% Calm Calm -- 29.91 in1012.9 mb 0.00 in0.0 mm 0.00 in0.0 mm 0.00 in0.0 mm
12:07 AM 60.8°F16.0°C 54.0°F12.2°C 78% 0.4 mph NE0.6 kmh NE 1.1 mph1.8 kmh 29.91 in1012.9 mb 0.00 in0.0 mm 0.00 in0.0 mm 0.00 in0.0 mm
12:06 AM 61.0°F16.1°C 54.1°F12.3°C 78% 0.4 mph NE0.6 kmh NE 1.1 mph1.8 kmh 29.91 in1012.9 mb 0.00 in0.0 mm 0.00 in0.0 mm 0.00 in0.0 mm
12:05 AM 61.0°F16.1°C 54.1°F12.3°C 78% Calm Calm -- 29.91 in1012.9 mb 0.00 in0.0 mm 0.00 in0.0 mm 0.00 in0.0 mm
12:04 AM 61.0°F16.1°C 54.1°F12.3°C 78% Calm Calm -- 29.91 in1012.9 mb 0.00 in0.0 mm 0.00 in0.0 mm 0.00 in0.0 mm
12:03 AM 61.0°F16.1°C 54.1°F12.3°C 78% Calm Calm -- 29.91 in1012.9 mb 0.00 in0.0 mm 0.00 in0.0 mm 0.00 in0.0 mm
12:02 AM 61.0°F16.1°C 54.1°F12.3°C 78% 0.2 mph NE0.3 kmh NE 1.1 mph1.8 kmh 29.91 in1012.9 mb 0.00 in0.0 mm 0.00 in0.0 mm 0.00 in0.0 mm
12:01 AM 61.0°F16.1°C 54.1°F12.3°C 78% 0.2 mph NE0.3 kmh NE 1.1 mph1.8 kmh 29.91 in1012.9 mb 0.00 in0.0 mm 0.00 in0.0 mm 0.00 in0.0 mm
12:00 AM 61.2°F16.2°C 54.3°F12.4°C 78% Calm Calm -- 29.91 in1012.9 mb 0.00 in0.0 mm 0.00 in0.0 mm 0.00 in0.0 mm